Terminal Aerodrome Forecast
Issued by NWS

Home | Current Version | Previous Version | Text Only | Print | Product List | Glossary Off
Versions: 1 2 3 4 5 6 7 8 9 10 11 12 13 14 15 16

000
FTUS43 KIWX 261700
TAFSBN
TAF
KSBN 261720Z 2618/2718 35009KT P6SM BKN030
     FM270000 35004KT P6SM BKN040
     FM271500 26008KT P6SM SCT020=

USA.gov is the U.S. government's official web portal to all federal, state and local government web resources and services.